Time;durP1;ratioP1;P1;durP2;ratioP2;P2;SDS_P1;SDS_P2;PMS_P1;PMS_P2;Temp;Humidity;BMP_temperature;BMP_pressure;BME280_temperature;BME280_humidity;BME280_pressure;Samples;Min_cycle;Max_cycle;Signal;HPM_P1;HPM_P2
2021/09/05 00:00:57;;;;;;;;;;;20.00;65.50;;;;;;494222;240;1061;-66
2021/09/05 00:02:58;;;;;;;;;;;19.80;65.80;;;;;;494109;240;1198;-66
2021/09/05 00:05:00;;;;;;;;;;;19.80;66.10;;;;;;494105;240;1095;-66
2021/09/05 00:07:01;;;;;;;;;;;19.80;66.10;;;;;;494124;240;1111;-66
2021/09/05 00:09:03;;;;;;;;;;;19.80;66.20;;;;;;494281;240;979;-66
2021/09/05 00:11:04;;;;;;;;;;;19.70;66.30;;;;;;494365;240;1449;-66
2021/09/05 00:13:05;;;;;;;;;;;19.70;66.30;;;;;;494213;240;1060;-66
2021/09/05 00:15:06;;;;;;;;;;;19.70;66.20;;;;;;494089;240;1036;-66
2021/09/05 00:17:08;;;;;;;;;;;19.80;66.00;;;;;;494012;240;1227;-66
2021/09/05 00:19:09;;;;;;;;;;;20.00;65.50;;;;;;494033;240;2190;-66
2021/09/05 00:21:10;;;;;;;;;;;19.90;65.50;;;;;;494469;240;1434;-66
2021/09/05 00:23:13;;;;;;;;;;;19.80;65.70;;;;;;494514;240;1024;-66
2021/09/05 00:25:13;;;;;;;;;;;19.80;65.90;;;;;;494280;241;1457;-66
2021/09/05 00:27:14;;;;;;;;;;;19.80;66.00;;;;;;494251;240;1058;-66
2021/09/05 00:29:16;;;;;;;;;;;19.70;66.20;;;;;;494032;240;1072;-66
2021/09/05 00:31:17;;;;;;;;;;;19.70;66.30;;;;;;494138;240;1243;-66
2021/09/05 00:33:18;;;;;;;;;;;19.80;66.20;;;;;;494348;240;1139;-66
2021/09/05 00:35:20;;;;;;;;;;;20.00;65.50;;;;;;494247;240;1202;-66
2021/09/05 00:37:21;;;;;;;;;;;20.00;65.10;;;;;;494354;240;1078;-66
2021/09/05 00:39:22;;;;;;;;;;;20.00;65.30;;;;;;494084;240;2159;-66
2021/09/05 00:41:24;;;;;;;;;;;19.90;65.60;;;;;;494211;240;1157;-66
2021/09/05 00:43:25;;;;;;;;;;;19.80;65.80;;;;;;494054;240;1132;-65
2021/09/05 00:45:26;;;;;;;;;;;19.80;66.00;;;;;;494136;240;1076;-65
2021/09/05 00:47:28;;;;;;;;;;;19.80;66.00;;;;;;494417;240;1068;-66
2021/09/05 00:49:29;;;;;;;;;;;19.90;65.70;;;;;;494096;240;1155;-66
2021/09/05 00:51:30;;;;;;;;;;;20.00;65.20;;;;;;494075;240;1110;-66
2021/09/05 00:53:32;;;;;;;;;;;20.00;65.30;;;;;;494385;240;1034;-66
2021/09/05 00:55:35;;;;;;;;;;;19.90;65.60;;;;;;494297;240;1120;-66
2021/09/05 00:57:34;;;;;;;;;;;19.80;65.90;;;;;;493960;241;1428;-66
2021/09/05 00:59:36;;;;;;;;;;;19.80;66.10;;;;;;494094;240;2146;-66
2021/09/05 01:01:37;;;;;;;;;;;19.80;66.00;;;;;;494067;240;1197;-66
2021/09/05 01:03:38;;;;;;;;;;;19.70;66.20;;;;;;494361;240;1112;-66
2021/09/05 01:05:40;;;;;;;;;;;19.70;66.30;;;;;;494092;240;1116;-66
2021/09/05 01:07:43;;;;;;;;;;;19.70;66.40;;;;;;494487;240;1103;-66
2021/09/05 01:09:44;;;;;;;;;;;19.80;66.20;;;;;;494217;240;1053;-66
2021/09/05 01:11:45;;;;;;;;;;;19.80;65.80;;;;;;494169;240;1196;-66
2021/09/05 01:13:47;;;;;;;;;;;19.80;66.00;;;;;;494046;240;982;-66
2021/09/05 01:15:48;;;;;;;;;;;19.70;66.20;;;;;;494511;240;1030;-66
2021/09/05 01:17:50;;;;;;;;;;;19.70;66.10;;;;;;494054;240;1050;-66
2021/09/05 01:19:51;;;;;;;;;;;19.80;65.90;;;;;;494033;240;2168;-66
2021/09/05 01:21:52;;;;;;;;;;;20.00;65.50;;;;;;494227;240;1101;-66
2021/09/05 01:23:54;;;;;;;;;;;19.90;65.40;;;;;;494568;240;1019;-66
2021/09/05 01:25:55;;;;;;;;;;;19.80;65.60;;;;;;494086;240;1046;-66
2021/09/05 01:27:56;;;;;;;;;;;19.70;66.00;;;;;;494092;240;1035;-66
2021/09/05 01:29:57;;;;;;;;;;;19.70;66.10;;;;;;494094;240;1031;-66
2021/09/05 01:31:59;;;;;;;;;;;19.80;66.20;;;;;;494106;240;1079;-66
2021/09/05 01:34:00;;;;;;;;;;;19.80;66.10;;;;;;494248;237;1307;-66
2021/09/05 01:36:01;;;;;;;;;;;19.90;65.70;;;;;;494059;240;1037;-66
2021/09/05 01:38:03;;;;;;;;;;;20.10;65.20;;;;;;493945;240;1068;-66
2021/09/05 01:40:04;;;;;;;;;;;20.30;64.40;;;;;;494124;240;2151;-66
2021/09/05 01:42:05;;;;;;;;;;;20.50;63.90;;;;;;493992;240;1091;-66
2021/09/05 01:44:07;;;;;;;;;;;20.40;63.60;;;;;;494106;240;1051;-66
2021/09/05 01:46:08;;;;;;;;;;;20.30;64.10;;;;;;494578;240;1080;-66
2021/09/05 01:48:09;;;;;;;;;;;20.10;64.60;;;;;;494578;240;1041;-66
2021/09/05 01:50:11;;;;;;;;;;;20.00;65.10;;;;;;494139;240;1162;-66
2021/09/05 01:52:13;;;;;;;;;;;19.90;65.60;;;;;;494139;240;1135;-66
2021/09/05 01:54:14;;;;;;;;;;;19.80;65.80;;;;;;494123;240;958;-66
2021/09/05 01:56:15;;;;;;;;;;;19.80;66.00;;;;;;494524;240;1047;-66
2021/09/05 01:58:16;;;;;;;;;;;19.80;66.00;;;;;;494074;240;1221;-66
2021/09/05 02:00:18;;;;;;;;;;;19.80;66.10;;;;;;494058;240;2199;-66
2021/09/05 02:02:19;;;;;;;;;;;20.00;65.50;;;;;;494026;240;1158;-66
2021/09/05 02:04:20;;;;;;;;;;;20.10;65.00;;;;;;494308;240;1160;-66
2021/09/05 02:06:22;;;;;;;;;;;20.10;65.00;;;;;;494213;240;1163;-66
2021/09/05 02:08:23;;;;;;;;;;;20.00;65.40;;;;;;494202;240;1169;-66
2021/09/05 02:10:25;;;;;;;;;;;19.90;65.70;;;;;;494538;240;1065;-66
2021/09/05 02:12:27;;;;;;;;;;;19.80;65.80;;;;;;494366;240;1123;-66
2021/09/05 02:14:28;;;;;;;;;;;19.80;65.90;;;;;;494166;240;1041;-66
2021/09/05 02:16:29;;;;;;;;;;;19.70;66.10;;;;;;494366;240;1208;-66
2021/09/05 02:18:30;;;;;;;;;;;19.70;66.20;;;;;;494446;240;1075;-66
2021/09/05 02:20:32;;;;;;;;;;;19.80;66.10;;;;;;494146;240;2164;-66
2021/09/05 02:22:33;;;;;;;;;;;19.90;65.70;;;;;;494065;240;1272;-66
2021/09/05 02:24:34;;;;;;;;;;;20.10;65.10;;;;;;494126;240;1027;-66
2021/09/05 02:26:35;;;;;;;;;;;20.30;64.50;;;;;;494531;240;1133;-66
2021/09/05 02:28:37;;;;;;;;;;;20.30;64.30;;;;;;494093;240;1091;-66
2021/09/05 02:30:38;;;;;;;;;;;20.20;64.70;;;;;;494252;240;1034;-66
2021/09/05 02:32:39;;;;;;;;;;;20.00;65.00;;;;;;493962;240;1143;-66
2021/09/05 02:34:41;;;;;;;;;;;20.00;65.40;;;;;;494059;240;1109;-66
2021/09/05 02:36:42;;;;;;;;;;;19.90;65.70;;;;;;494173;240;1116;-66
2021/09/05 02:38:43;;;;;;;;;;;19.80;65.80;;;;;;494397;240;999;-66
2021/09/05 02:40:45;;;;;;;;;;;19.90;65.80;;;;;;494351;240;2191;-66
2021/09/05 02:42:46;;;;;;;;;;;19.90;65.70;;;;;;494133;240;1157;-66
2021/09/05 02:44:47;;;;;;;;;;;19.90;65.40;;;;;;494144;240;1046;-66
2021/09/05 02:46:49;;;;;;;;;;;19.90;65.60;;;;;;494103;240;1065;-66
2021/09/05 02:48:50;;;;;;;;;;;19.90;65.70;;;;;;494596;240;1041;-66
2021/09/05 02:50:51;;;;;;;;;;;19.80;65.90;;;;;;494094;240;1204;-66
2021/09/05 02:52:53;;;;;;;;;;;19.80;66.00;;;;;;494475;240;1060;-66
2021/09/05 02:54:54;;;;;;;;;;;19.80;66.20;;;;;;494267;240;1068;-66
2021/09/05 02:56:55;;;;;;;;;;;19.90;65.90;;;;;;494474;240;1226;-66
2021/09/05 02:58:57;;;;;;;;;;;20.10;65.10;;;;;;494471;240;1150;-66
2021/09/05 03:00:58;;;;;;;;;;;20.30;64.50;;;;;;494392;240;2139;-66
2021/09/05 03:02:59;;;;;;;;;;;20.40;63.90;;;;;;494047;240;1116;-66
2021/09/05 03:05:01;;;;;;;;;;;20.30;64.10;;;;;;494457;240;1155;-66
2021/09/05 03:07:02;;;;;;;;;;;20.20;64.60;;;;;;494291;240;1491;-66
2021/09/05 03:09:03;;;;;;;;;;;20.00;65.10;;;;;;494136;240;1049;-65
2021/09/05 03:11:04;;;;;;;;;;;20.00;65.50;;;;;;494425;240;1356;-66
2021/09/05 03:13:06;;;;;;;;;;;19.90;65.60;;;;;;494086;240;1173;-66
2021/09/05 03:15:07;;;;;;;;;;;19.90;65.80;;;;;;494100;240;1025;-66
2021/09/05 03:17:08;;;;;;;;;;;19.80;65.80;;;;;;494345;240;1718;-66
2021/09/05 03:19:10;;;;;;;;;;;19.90;65.70;;;;;;494086;240;1038;-66
2021/09/05 03:21:11;;;;;;;;;;;20.00;65.20;;;;;;494079;240;2194;-66
2021/09/05 03:23:12;;;;;;;;;;;20.00;65.20;;;;;;494517;240;1045;-66
2021/09/05 03:25:14;;;;;;;;;;;19.90;65.50;;;;;;494102;240;1078;-66
2021/09/05 03:27:15;;;;;;;;;;;19.90;65.70;;;;;;494114;240;1334;-66
2021/09/05 03:29:16;;;;;;;;;;;19.80;65.90;;;;;;494238;240;1083;-66
2021/09/05 03:31:18;;;;;;;;;;;19.80;66.00;;;;;;494045;240;1133;-66
2021/09/05 03:33:19;;;;;;;;;;;19.80;66.00;;;;;;494311;240;1059;-66
2021/09/05 03:35:20;;;;;;;;;;;19.80;66.00;;;;;;494367;240;1152;-66
2021/09/05 03:37:22;;;;;;;;;;;19.80;65.80;;;;;;494058;240;1091;-66
2021/09/05 03:39:23;;;;;;;;;;;19.80;65.80;;;;;;494493;240;1059;-66
2021/09/05 03:41:24;;;;;;;;;;;19.70;66.10;;;;;;494183;240;2191;-66
2021/09/05 03:43:26;;;;;;;;;;;19.80;66.10;;;;;;494394;240;1016;-66
2021/09/05 03:45:27;;;;;;;;;;;19.80;66.30;;;;;;494500;240;1019;-66
2021/09/05 03:47:28;;;;;;;;;;;19.80;66.10;;;;;;494269;240;1263;-66
2021/09/05 03:49:31;;;;;;;;;;;19.90;65.80;;;;;;494131;240;1081;-66
2021/09/05 03:51:31;;;;;;;;;;;20.00;65.20;;;;;;494120;241;1387;-66
2021/09/05 03:53:32;;;;;;;;;;;20.00;65.00;;;;;;494096;240;1033;-66
2021/09/05 03:55:34;;;;;;;;;;;19.90;65.30;;;;;;494598;240;1032;-66
2021/09/05 03:57:35;;;;;;;;;;;19.80;65.60;;;;;;494389;240;1102;-66
2021/09/05 03:59:36;;;;;;;;;;;19.80;65.80;;;;;;494596;240;1261;-66
2021/09/05 04:01:38;;;;;;;;;;;19.80;65.90;;;;;;494314;240;2160;-66
2021/09/05 04:03:39;;;;;;;;;;;19.90;65.80;;;;;;494116;240;1096;-66
2021/09/05 04:05:40;;;;;;;;;;;19.80;65.90;;;;;;494048;240;1498;-66
2021/09/05 04:07:44;;;;;;;;;;;19.80;66.10;;;;;;494326;240;1041;-66
2021/09/05 04:12:03;;;;;;;;;;;19.80;66.00;;;;;;494074;241;1041;-66
2021/09/05 04:14:04;;;;;;;;;;;19.80;65.70;;;;;;494585;240;1106;-66
2021/09/05 04:16:06;;;;;;;;;;;20.00;65.10;;;;;;494565;240;1026;-66
2021/09/05 04:18:07;;;;;;;;;;;20.10;64.80;;;;;;494217;240;1011;-66
2021/09/05 04:20:08;;;;;;;;;;;20.00;65.00;;;;;;494115;240;1070;-66
2021/09/05 04:22:10;;;;;;;;;;;19.90;65.40;;;;;;494049;240;2144;-66
2021/09/05 04:24:11;;;;;;;;;;;19.80;65.70;;;;;;494117;240;1061;-66
2021/09/05 04:26:12;;;;;;;;;;;19.80;65.80;;;;;;494393;240;1037;-66
2021/09/05 04:28:14;;;;;;;;;;;19.80;66.00;;;;;;494576;240;1033;-66
2021/09/05 04:30:15;;;;;;;;;;;20.00;65.40;;;;;;494206;240;1056;-66
2021/09/05 04:32:17;;;;;;;;;;;20.10;64.80;;;;;;494382;240;1160;-66
2021/09/05 04:34:18;;;;;;;;;;;20.00;64.80;;;;;;494039;240;1107;-66
2021/09/05 04:36:20;;;;;;;;;;;20.00;65.30;;;;;;494047;237;1316;-66
2021/09/05 04:38:21;;;;;;;;;;;19.90;65.60;;;;;;494074;240;1162;-66
2021/09/05 04:40:22;;;;;;;;;;;19.80;65.80;;;;;;494252;240;1104;-66
2021/09/05 04:42:24;;;;;;;;;;;19.70;66.00;;;;;;494065;240;1074;-66
2021/09/05 04:44:25;;;;;;;;;;;19.70;66.30;;;;;;494098;240;1012;-66
2021/09/05 04:46:26;;;;;;;;;;;19.70;66.30;;;;;;494556;240;1053;-66
2021/09/05 04:48:28;;;;;;;;;;;19.80;66.00;;;;;;494101;240;1094;-66
2021/09/05 04:50:29;;;;;;;;;;;20.00;65.30;;;;;;494086;240;1062;-66
2021/09/05 04:52:30;;;;;;;;;;;20.10;65.00;;;;;;494110;240;1123;-66
2021/09/05 04:54:32;;;;;;;;;;;20.10;64.80;;;;;;494245;240;1035;-66
2021/09/05 04:56:33;;;;;;;;;;;20.00;65.20;;;;;;494282;240;1142;-66
2021/09/05 04:58:34;;;;;;;;;;;19.90;65.60;;;;;;494312;240;1077;-66
2021/09/05 05:00:36;;;;;;;;;;;19.80;65.80;;;;;;494279;240;2135;-66
2021/09/05 05:02:37;;;;;;;;;;;19.70;66.00;;;;;;494154;240;1061;-66
2021/09/05 05:04:38;;;;;;;;;;;19.80;66.00;;;;;;494376;240;1137;-66
2021/09/05 05:06:40;;;;;;;;;;;19.80;66.00;;;;;;494292;240;1082;-66
2021/09/05 05:08:41;;;;;;;;;;;19.90;65.60;;;;;;494558;240;1034;-66
2021/09/05 05:10:43;;;;;;;;;;;20.10;65.00;;;;;;494440;240;1047;-66
2021/09/05 05:12:44;;;;;;;;;;;20.10;64.70;;;;;;494026;240;1087;-66
2021/09/05 05:14:45;;;;;;;;;;;20.00;65.00;;;;;;494409;240;1083;-66
2021/09/05 05:16:47;;;;;;;;;;;19.90;65.40;;;;;;494341;240;1069;-66
2021/09/05 05:18:48;;;;;;;;;;;19.80;65.70;;;;;;494440;240;1119;-66
2021/09/05 05:20:49;;;;;;;;;;;19.80;65.80;;;;;;494524;240;2143;-66
2021/09/05 05:22:50;;;;;;;;;;;20.00;65.30;;;;;;494075;240;1115;-66
2021/09/05 05:24:52;;;;;;;;;;;20.20;64.70;;;;;;494155;240;1090;-66
2021/09/05 05:26:53;;;;;;;;;;;20.10;64.60;;;;;;494272;240;1415;-66
2021/09/05 05:28:55;;;;;;;;;;;20.00;65.00;;;;;;494047;240;1117;-66
2021/09/05 05:30:56;;;;;;;;;;;19.90;65.30;;;;;;494063;240;1146;-66
2021/09/05 05:32:58;;;;;;;;;;;19.80;65.60;;;;;;494055;240;1192;-66
2021/09/05 05:34:59;;;;;;;;;;;19.80;65.80;;;;;;494001;240;1510;-66
2021/09/05 05:37:03;;;;;;;;;;;19.80;66.00;;;;;;494218;240;1115;-66
2021/09/05 05:39:01;;;;;;;;;;;19.80;66.00;;;;;;493918;241;1462;-66
2021/09/05 05:41:03;;;;;;;;;;;19.70;66.00;;;;;;494200;240;2182;-66
2021/09/05 05:43:04;;;;;;;;;;;19.90;65.70;;;;;;494052;240;1182;-66
2021/09/05 05:45:05;;;;;;;;;;;20.00;65.00;;;;;;494022;240;1058;-66
2021/09/05 05:47:07;;;;;;;;;;;20.10;64.80;;;;;;493981;240;1098;-66
2021/09/05 05:49:08;;;;;;;;;;;20.00;65.00;;;;;;494098;240;1034;-66
2021/09/05 05:51:09;;;;;;;;;;;19.90;65.40;;;;;;494497;240;1017;-66
2021/09/05 05:53:11;;;;;;;;;;;19.80;65.70;;;;;;494133;240;1165;-66
2021/09/05 05:55:12;;;;;;;;;;;19.80;65.80;;;;;;494049;240;1035;-66
2021/09/05 05:57:13;;;;;;;;;;;20.00;65.30;;;;;;493978;240;1089;-66
2021/09/05 05:59:15;;;;;;;;;;;20.20;64.60;;;;;;494095;240;1188;-66
2021/09/05 06:01:16;;;;;;;;;;;20.30;64.10;;;;;;493990;240;2143;-66
2021/09/05 06:03:17;;;;;;;;;;;20.20;64.40;;;;;;494265;240;1217;-66
2021/09/05 06:05:19;;;;;;;;;;;20.00;64.80;;;;;;494065;240;1084;-66
2021/09/05 06:07:20;;;;;;;;;;;20.00;65.30;;;;;;494139;240;1122;-66
2021/09/05 06:09:21;;;;;;;;;;;19.80;65.50;;;;;;494106;240;1054;-66
2021/09/05 06:11:23;;;;;;;;;;;19.80;65.80;;;;;;494068;240;1049;-66
2021/09/05 06:13:24;;;;;;;;;;;19.70;66.00;;;;;;494511;240;1068;-66
2021/09/05 06:15:25;;;;;;;;;;;19.70;66.10;;;;;;494078;240;966;-66
2021/09/05 06:17:26;;;;;;;;;;;19.70;66.10;;;;;;494522;240;1044;-66
2021/09/05 06:19:28;;;;;;;;;;;19.80;65.90;;;;;;494502;240;1078;-66
2021/09/05 06:21:29;;;;;;;;;;;19.90;65.50;;;;;;494418;240;2187;-66
2021/09/05 06:23:30;;;;;;;;;;;20.00;65.30;;;;;;494095;240;1146;-66
2021/09/05 06:25:32;;;;;;;;;;;19.90;65.40;;;;;;494132;240;1043;-66
2021/09/05 06:27:33;;;;;;;;;;;19.90;65.70;;;;;;494297;240;1090;-66
2021/09/05 06:29:34;;;;;;;;;;;19.80;65.80;;;;;;494350;240;1025;-66
2021/09/05 06:31:36;;;;;;;;;;;19.90;65.60;;;;;;494019;240;1065;-66
2021/09/05 06:33:37;;;;;;;;;;;19.90;65.40;;;;;;494563;240;1115;-66
2021/09/05 06:35:38;;;;;;;;;;;19.90;65.50;;;;;;494052;240;1079;-66
2021/09/05 06:37:40;;;;;;;;;;;19.80;65.70;;;;;;494042;240;1388;-66
2021/09/05 06:39:41;;;;;;;;;;;19.80;65.80;;;;;;494204;240;1066;-66
2021/09/05 06:41:42;;;;;;;;;;;20.00;65.20;;;;;;494090;240;2193;-66
2021/09/05 06:43:44;;;;;;;;;;;20.20;64.60;;;;;;494567;240;1214;-66
2021/09/05 06:45:45;;;;;;;;;;;20.40;64.00;;;;;;494467;240;1139;-66
2021/09/05 06:47:46;;;;;;;;;;;20.50;63.50;;;;;;494384;240;1129;-66
2021/09/05 06:49:48;;;;;;;;;;;20.60;63.10;;;;;;494150;240;1127;-66
2021/09/05 06:51:49;;;;;;;;;;;20.60;62.90;;;;;;494084;240;1161;-66
2021/09/05 06:53:50;;;;;;;;;;;20.50;63.50;;;;;;494144;240;1181;-66
2021/09/05 06:55:52;;;;;;;;;;;20.30;64.20;;;;;;494184;240;990;-66
2021/09/05 06:57:53;;;;;;;;;;;20.10;64.80;;;;;;494108;240;1137;-66
2021/09/05 06:59:54;;;;;;;;;;;20.00;65.20;;;;;;494564;240;1039;-66
2021/09/05 07:01:56;;;;;;;;;;;19.90;65.60;;;;;;494110;240;2182;-66
2021/09/05 07:03:57;;;;;;;;;;;19.80;65.80;;;;;;494175;240;1079;-66
2021/09/05 07:05:58;;;;;;;;;;;19.80;66.00;;;;;;494170;240;1095;-66
2021/09/05 07:08:00;;;;;;;;;;;19.70;66.10;;;;;;494096;240;1163;-66
2021/09/05 07:10:01;;;;;;;;;;;19.70;66.20;;;;;;494059;240;1088;-66
2021/09/05 07:12:02;;;;;;;;;;;19.80;66.10;;;;;;493997;240;1589;-66
2021/09/05 07:14:04;;;;;;;;;;;19.90;65.70;;;;;;494243;240;1036;-66
2021/09/05 07:16:05;;;;;;;;;;;19.90;65.50;;;;;;494359;240;1241;-66
2021/09/05 07:18:06;;;;;;;;;;;19.90;65.40;;;;;;494081;240;1066;-66
2021/09/05 07:20:07;;;;;;;;;;;19.90;65.50;;;;;;494140;240;1093;-66
2021/09/05 07:22:09;;;;;;;;;;;19.80;65.80;;;;;;494198;240;2194;-66
2021/09/05 07:24:10;;;;;;;;;;;19.80;66.00;;;;;;494158;240;1199;-66
2021/09/05 07:26:11;;;;;;;;;;;19.70;66.00;;;;;;494321;240;1464;-66
2021/09/05 07:28:13;;;;;;;;;;;19.80;65.90;;;;;;494116;240;1154;-66
2021/09/05 07:30:14;;;;;;;;;;;20.00;65.30;;;;;;494119;240;1037;-66
2021/09/05 07:32:15;;;;;;;;;;;20.20;64.50;;;;;;494034;240;1150;-66
2021/09/05 07:34:17;;;;;;;;;;;20.40;64.00;;;;;;494211;240;1018;-66
2021/09/05 07:36:18;;;;;;;;;;;20.50;63.40;;;;;;493985;240;1199;-66
2021/09/05 07:38:19;;;;;;;;;;;20.40;63.80;;;;;;494199;240;1185;-66
2021/09/05 07:40:21;;;;;;;;;;;20.20;64.40;;;;;;494142;240;1053;-66
2021/09/05 07:42:22;;;;;;;;;;;20.10;64.80;;;;;;494135;240;2139;-66
2021/09/05 07:44:23;;;;;;;;;;;20.00;65.20;;;;;;494107;240;1060;-66
2021/09/05 07:46:25;;;;;;;;;;;19.90;65.50;;;;;;494328;240;1149;-66
2021/09/05 07:48:26;;;;;;;;;;;19.80;65.80;;;;;;494072;240;1052;-66
2021/09/05 07:50:27;;;;;;;;;;;19.80;65.90;;;;;;494175;240;1057;-66
2021/09/05 07:52:29;;;;;;;;;;;19.80;65.90;;;;;;494025;240;1103;-66
2021/09/05 07:54:30;;;;;;;;;;;19.80;66.00;;;;;;494192;240;1186;-66
2021/09/05 07:56:31;;;;;;;;;;;19.70;66.00;;;;;;494349;240;1146;-66
2021/09/05 07:58:33;;;;;;;;;;;19.80;66.00;;;;;;494533;240;1088;-66
2021/09/05 08:00:34;;;;;;;;;;;19.80;65.80;;;;;;494240;240;1487;-66
2021/09/05 08:02:35;;;;;;;;;;;19.80;66.00;;;;;;494173;240;2183;-66
2021/09/05 08:04:37;;;;;;;;;;;19.90;65.80;;;;;;494104;240;1105;-66
2021/09/05 08:06:38;;;;;;;;;;;20.10;65.00;;;;;;494035;240;1128;-66
2021/09/05 08:08:39;;;;;;;;;;;20.30;64.40;;;;;;494110;240;1142;-66
2021/09/05 08:10:41;;;;;;;;;;;20.40;64.00;;;;;;494584;240;1052;-66
2021/09/05 08:12:42;;;;;;;;;;;20.60;63.40;;;;;;494321;240;1370;-66
2021/09/05 08:14:43;;;;;;;;;;;20.50;63.40;;;;;;494104;240;1056;-66
2021/09/05 08:16:44;;;;;;;;;;;20.30;63.90;;;;;;494292;240;1123;-66
2021/09/05 08:18:46;;;;;;;;;;;20.20;64.50;;;;;;494211;240;1023;-66
2021/09/05 08:20:47;;;;;;;;;;;20.00;64.90;;;;;;494057;240;1145;-66
2021/09/05 08:22:48;;;;;;;;;;;19.90;65.30;;;;;;494099;240;2183;-66
2021/09/05 08:24:50;;;;;;;;;;;19.90;65.50;;;;;;494106;240;1140;-66
2021/09/05 08:26:51;;;;;;;;;;;19.80;65.70;;;;;;494423;240;1113;-66
2021/09/05 08:28:52;;;;;;;;;;;19.80;65.90;;;;;;494389;240;1044;-66
2021/09/05 08:30:54;;;;;;;;;;;19.80;66.00;;;;;;494066;240;1128;-66
2021/09/05 08:32:55;;;;;;;;;;;19.80;66.10;;;;;;494024;240;1116;-66
2021/09/05 08:34:56;;;;;;;;;;;19.80;65.70;;;;;;494524;240;1028;-66
2021/09/05 08:36:58;;;;;;;;;;;19.90;65.80;;;;;;493964;240;1243;-66
2021/09/05 08:38:59;;;;;;;;;;;19.90;65.40;;;;;;494441;240;1153;-66
2021/09/05 08:41:00;;;;;;;;;;;19.90;65.60;;;;;;494193;240;1347;-66
2021/09/05 08:43:02;;;;;;;;;;;19.80;65.80;;;;;;494008;240;2199;-66
2021/09/05 08:45:03;;;;;;;;;;;19.80;66.00;;;;;;494592;240;1000;-66
2021/09/05 08:47:04;;;;;;;;;;;19.80;66.00;;;;;;494081;240;1166;-66
2021/09/05 08:49:06;;;;;;;;;;;19.80;66.00;;;;;;494105;240;1036;-66
2021/09/05 08:51:07;;;;;;;;;;;20.00;65.30;;;;;;494377;240;1345;-66
2021/09/05 08:53:08;;;;;;;;;;;20.10;64.90;;;;;;494277;240;1054;-66
2021/09/05 08:55:10;;;;;;;;;;;20.30;64.40;;;;;;494218;240;1169;-66
2021/09/05 08:57:11;;;;;;;;;;;20.40;63.80;;;;;;494083;240;1178;-66
2021/09/05 08:59:13;;;;;;;;;;;20.60;63.50;;;;;;494464;240;1052;-66
2021/09/05 09:01:14;;;;;;;;;;;20.60;63.10;;;;;;494298;240;1358;-66
2021/09/05 09:03:15;;;;;;;;;;;20.70;62.90;;;;;;494047;240;2194;-66
2021/09/05 09:05:16;;;;;;;;;;;20.80;62.30;;;;;;494137;240;1102;-66
2021/09/05 09:07:18;;;;;;;;;;;20.80;62.50;;;;;;494060;240;1233;-66
2021/09/05 09:09:20;;;;;;;;;;;20.60;63.20;;;;;;494114;240;1156;-66
2021/09/05 09:11:20;;;;;;;;;;;20.40;63.80;;;;;;494448;241;1371;-66
2021/09/05 09:13:22;;;;;;;;;;;20.20;64.40;;;;;;494518;240;1131;-66
2021/09/05 09:15:23;;;;;;;;;;;20.10;64.80;;;;;;494338;240;1027;-66
2021/09/05 09:17:24;;;;;;;;;;;20.00;65.10;;;;;;494434;240;1318;-66
2021/09/05 09:19:26;;;;;;;;;;;20.00;65.40;;;;;;494067;240;1080;-66
2021/09/05 09:21:27;;;;;;;;;;;19.90;65.60;;;;;;494068;240;1104;-66
2021/09/05 09:23:28;;;;;;;;;;;19.90;65.80;;;;;;494056;240;2187;-66
2021/09/05 09:25:30;;;;;;;;;;;19.80;65.90;;;;;;494062;240;1220;-66
2021/09/05 09:27:31;;;;;;;;;;;19.80;65.90;;;;;;494229;240;1037;-66
2021/09/05 09:29:32;;;;;;;;;;;19.80;66.00;;;;;;494570;240;1084;-66
2021/09/05 09:31:34;;;;;;;;;;;19.90;65.80;;;;;;494331;240;1104;-66
2021/09/05 09:33:35;;;;;;;;;;;20.10;65.10;;;;;;494509;240;1040;-66
2021/09/05 09:35:36;;;;;;;;;;;20.20;64.50;;;;;;494153;240;1076;-66
2021/09/05 09:37:38;;;;;;;;;;;20.20;64.70;;;;;;494200;240;1073;-66
2021/09/05 09:39:39;;;;;;;;;;;20.00;65.00;;;;;;494070;240;1308;-66
2021/09/05 09:41:41;;;;;;;;;;;20.00;65.50;;;;;;494268;240;1082;-66
2021/09/05 09:43:42;;;;;;;;;;;19.90;65.60;;;;;;494088;240;2182;-66
2021/09/05 09:45:43;;;;;;;;;;;19.80;65.70;;;;;;494075;240;1063;-66
2021/09/05 09:47:44;;;;;;;;;;;19.80;65.90;;;;;;494207;240;1151;-66
2021/09/05 09:49:46;;;;;;;;;;;19.80;66.00;;;;;;494109;240;1070;-66
2021/09/05 09:51:47;;;;;;;;;;;19.80;66.00;;;;;;494157;240;1113;-66
2021/09/05 09:53:48;;;;;;;;;;;19.80;65.70;;;;;;494574;240;1066;-66
2021/09/05 09:55:50;;;;;;;;;;;19.90;65.70;;;;;;494263;240;1189;-66
2021/09/05 09:57:51;;;;;;;;;;;19.90;65.60;;;;;;494198;240;1087;-66
2021/09/05 09:59:52;;;;;;;;;;;19.80;65.90;;;;;;494115;240;1109;-66
2021/09/05 10:01:54;;;;;;;;;;;19.80;66.00;;;;;;494362;240;1183;-66
2021/09/05 10:03:55;;;;;;;;;;;19.80;66.00;;;;;;494582;240;2146;-66
2021/09/05 10:05:56;;;;;;;;;;;19.90;65.70;;;;;;494119;240;1092;-66
2021/09/05 10:07:58;;;;;;;;;;;20.00;65.40;;;;;;494266;240;1132;-66
2021/09/05 10:09:59;;;;;;;;;;;20.10;65.10;;;;;;494233;240;1107;-66
2021/09/05 10:12:00;;;;;;;;;;;20.00;65.30;;;;;;494342;240;1081;-66
2021/09/05 10:14:02;;;;;;;;;;;19.80;65.60;;;;;;494120;240;1172;-66
2021/09/05 10:16:03;;;;;;;;;;;19.80;65.90;;;;;;494446;240;1036;-66
2021/09/05 10:18:04;;;;;;;;;;;19.70;66.00;;;;;;494514;240;1135;-66
2021/09/05 10:20:06;;;;;;;;;;;19.80;66.10;;;;;;494411;240;1075;-66
2021/09/05 10:22:07;;;;;;;;;;;19.80;65.90;;;;;;494059;240;1326;-66
2021/09/05 10:24:08;;;;;;;;;;;20.10;65.20;;;;;;494094;240;2128;-66
2021/09/05 10:26:10;;;;;;;;;;;20.10;64.70;;;;;;494163;240;1114;-66
2021/09/05 10:28:11;;;;;;;;;;;20.10;64.90;;;;;;494242;240;1051;-66
2021/09/05 10:30:12;;;;;;;;;;;20.00;65.20;;;;;;494165;240;1074;-66
2021/09/05 10:32:14;;;;;;;;;;;19.90;65.50;;;;;;494433;240;1424;-66
2021/09/05 10:34:15;;;;;;;;;;;19.80;65.80;;;;;;494602;240;1053;-66
2021/09/05 10:36:18;;;;;;;;;;;19.80;65.90;;;;;;494287;240;1066;-66
2021/09/05 10:38:20;;;;;;;;;;;19.90;65.70;;;;;;494259;240;1386;-66
2021/09/05 10:40:20;;;;;;;;;;;20.00;65.40;;;;;;494154;241;1528;-66
2021/09/05 10:42:22;;;;;;;;;;;19.90;65.50;;;;;;494224;240;1056;-66
2021/09/05 10:44:23;;;;;;;;;;;19.90;65.70;;;;;;494512;240;2187;-66
2021/09/05 10:46:24;;;;;;;;;;;19.80;65.80;;;;;;494224;240;1073;-66
2021/09/05 10:48:25;;;;;;;;;;;19.80;65.80;;;;;;494092;240;1127;-66
2021/09/05 10:50:27;;;;;;;;;;;20.00;65.30;;;;;;494141;240;1043;-66
2021/09/05 10:52:28;;;;;;;;;;;20.00;65.30;;;;;;494114;240;1072;-66
2021/09/05 10:54:29;;;;;;;;;;;20.10;65.00;;;;;;494597;240;1033;-66
2021/09/05 10:56:31;;;;;;;;;;;20.00;65.20;;;;;;494180;240;1182;-66
2021/09/05 10:58:32;;;;;;;;;;;19.90;65.50;;;;;;494524;240;1079;-66
2021/09/05 11:00:33;;;;;;;;;;;19.90;65.80;;;;;;494294;240;1128;-66
2021/09/05 11:02:35;;;;;;;;;;;19.80;66.00;;;;;;494067;240;1060;-66
2021/09/05 11:04:36;;;;;;;;;;;19.70;66.20;;;;;;494290;240;2104;-66
2021/09/05 11:06:38;;;;;;;;;;;19.70;66.30;;;;;;494384;240;1059;-66
2021/09/05 11:08:39;;;;;;;;;;;19.60;66.30;;;;;;494124;240;1058;-66
2021/09/05 11:10:40;;;;;;;;;;;19.70;66.10;;;;;;494256;240;1114;-66
2021/09/05 11:12:42;;;;;;;;;;;19.80;66.10;;;;;;494017;240;1096;-66
2021/09/05 11:14:46;;;;;;;;;;;19.90;65.70;;;;;;494075;240;1063;-66
2021/09/05 11:16:44;;;;;;;;;;;20.00;65.20;;;;;;493900;241;1345;-66
2021/09/05 11:18:46;;;;;;;;;;;20.00;65.30;;;;;;494472;240;1076;-66
2021/09/05 11:20:47;;;;;;;;;;;20.00;65.10;;;;;;494552;240;1174;-66
2021/09/05 11:22:48;;;;;;;;;;;19.90;65.40;;;;;;494202;240;2206;-66
2021/09/05 11:24:50;;;;;;;;;;;19.90;65.60;;;;;;494595;240;1093;-66
2021/09/05 11:26:51;;;;;;;;;;;19.80;65.80;;;;;;494141;240;1529;-66
2021/09/05 11:28:52;;;;;;;;;;;19.90;65.60;;;;;;494372;240;1125;-66
2021/09/05 11:30:54;;;;;;;;;;;19.80;65.50;;;;;;494260;240;1127;-66
2021/09/05 11:32:55;;;;;;;;;;;19.80;65.80;;;;;;494079;240;1226;-66
2021/09/05 11:34:56;;;;;;;;;;;19.80;65.90;;;;;;494248;240;1075;-66
2021/09/05 11:36:58;;;;;;;;;;;19.80;66.00;;;;;;493923;240;1281;-66
2021/09/05 11:38:59;;;;;;;;;;;19.90;65.60;;;;;;494053;240;1092;-66
2021/09/05 11:41:01;;;;;;;;;;;20.10;65.00;;;;;;494388;240;1136;-66
2021/09/05 11:43:02;;;;;;;;;;;20.20;64.40;;;;;;494368;240;2223;-66
2021/09/05 11:45:03;;;;;;;;;;;20.40;63.80;;;;;;494194;240;1060;-66
2021/09/05 11:47:04;;;;;;;;;;;20.30;64.10;;;;;;494275;240;1108;-66
2021/09/05 11:49:06;;;;;;;;;;;20.10;64.50;;;;;;494416;240;1016;-66
2021/09/05 11:51:07;;;;;;;;;;;20.00;64.90;;;;;;494170;240;1072;-66
2021/09/05 11:53:08;;;;;;;;;;;19.90;65.30;;;;;;494338;240;1056;-66
2021/09/05 11:55:09;;;;;;;;;;;19.90;65.70;;;;;;494142;240;1055;-66
2021/09/05 11:57:11;;;;;;;;;;;19.80;65.80;;;;;;494212;240;1312;-66
2021/09/05 11:59:12;;;;;;;;;;;19.80;65.80;;;;;;494105;240;1072;-66